sensor_id;sensor_type;location;lat;lon;timestamp;P1;durP1;ratioP1;P2;durP2;ratioP2
75429;SDS011;64127;51.488;5.462;2024-01-30T00:01:06;7.13;;;6.43;;
75429;SDS011;64127;51.488;5.462;2024-01-30T00:03:38;7.50;;;6.67;;
75429;SDS011;64127;51.488;5.462;2024-01-30T00:06:11;7.30;;;6.53;;
75429;SDS011;64127;51.488;5.462;2024-01-30T00:08:43;7.33;;;6.63;;
75429;SDS011;64127;51.488;5.462;2024-01-30T00:11:17;7.37;;;6.63;;
75429;SDS011;64127;51.488;5.462;2024-01-30T00:13:49;8.80;;;7.33;;
75429;SDS011;64127;51.488;5.462;2024-01-30T00:16:22;7.23;;;6.50;;
75429;SDS011;64127;51.488;5.462;2024-01-30T00:18:55;7.10;;;6.43;;
75429;SDS011;64127;51.488;5.462;2024-01-30T00:21:28;7.93;;;6.53;;
75429;SDS011;64127;51.488;5.462;2024-01-30T00:24:00;6.83;;;6.20;;
75429;SDS011;64127;51.488;5.462;2024-01-30T00:26:32;8.20;;;6.87;;
75429;SDS011;64127;51.488;5.462;2024-01-30T00:29:04;7.57;;;6.70;;
75429;SDS011;64127;51.488;5.462;2024-01-30T00:31:36;7.63;;;6.77;;
75429;SDS011;64127;51.488;5.462;2024-01-30T00:34:12;7.30;;;6.60;;
75429;SDS011;64127;51.488;5.462;2024-01-30T00:36:44;7.57;;;6.67;;
75429;SDS011;64127;51.488;5.462;2024-01-30T00:39:16;7.77;;;6.80;;
75429;SDS011;64127;51.488;5.462;2024-01-30T00:41:50;7.87;;;6.90;;
75429;SDS011;64127;51.488;5.462;2024-01-30T00:44:22;7.13;;;6.50;;
75429;SDS011;64127;51.488;5.462;2024-01-30T00:46:54;7.70;;;6.90;;
75429;SDS011;64127;51.488;5.462;2024-01-30T00:49:26;7.80;;;6.80;;
75429;SDS011;64127;51.488;5.462;2024-01-30T00:51:58;7.43;;;6.33;;
75429;SDS011;64127;51.488;5.462;2024-01-30T00:54:31;7.50;;;6.80;;
75429;SDS011;64127;51.488;5.462;2024-01-30T00:57:03;7.50;;;6.80;;
75429;SDS011;64127;51.488;5.462;2024-01-30T00:59:35;7.80;;;6.67;;
75429;SDS011;64127;51.488;5.462;2024-01-30T01:02:07;7.33;;;6.50;;
75429;SDS011;64127;51.488;5.462;2024-01-30T01:04:39;7.60;;;6.60;;
75429;SDS011;64127;51.488;5.462;2024-01-30T01:07:11;7.70;;;6.90;;
75429;SDS011;64127;51.488;5.462;2024-01-30T01:09:43;7.57;;;6.77;;
75429;SDS011;64127;51.488;5.462;2024-01-30T01:12:15;8.73;;;7.13;;
75429;SDS011;64127;51.488;5.462;2024-01-30T01:14:47;7.47;;;6.67;;
75429;SDS011;64127;51.488;5.462;2024-01-30T01:17:19;7.47;;;6.70;;
75429;SDS011;64127;51.488;5.462;2024-01-30T01:19:52;9.23;;;7.13;;
75429;SDS011;64127;51.488;5.462;2024-01-30T01:22:24;6.77;;;6.00;;
75429;SDS011;64127;51.488;5.462;2024-01-30T01:24:56;7.73;;;6.70;;
75429;SDS011;64127;51.488;5.462;2024-01-30T01:27:28;7.27;;;6.53;;
75429;SDS011;64127;51.488;5.462;2024-01-30T01:30:00;6.97;;;6.27;;
75429;SDS011;64127;51.488;5.462;2024-01-30T01:32:32;9.23;;;6.50;;
75429;SDS011;64127;51.488;5.462;2024-01-30T01:35:04;6.83;;;6.23;;
75429;SDS011;64127;51.488;5.462;2024-01-30T01:37:37;7.83;;;6.50;;
75429;SDS011;64127;51.488;5.462;2024-01-30T01:40:09;7.53;;;6.80;;
75429;SDS011;64127;51.488;5.462;2024-01-30T01:42:41;6.80;;;6.17;;
75429;SDS011;64127;51.488;5.462;2024-01-30T01:45:13;8.27;;;6.33;;
75429;SDS011;64127;51.488;5.462;2024-01-30T01:47:45;6.77;;;6.07;;
75429;SDS011;64127;51.488;5.462;2024-01-30T01:50:22;7.20;;;6.50;;
75429;SDS011;64127;51.488;5.462;2024-01-30T01:52:55;7.00;;;6.40;;
75429;SDS011;64127;51.488;5.462;2024-01-30T01:55:28;7.47;;;6.30;;
75429;SDS011;64127;51.488;5.462;2024-01-30T01:58:03;7.23;;;6.30;;
75429;SDS011;64127;51.488;5.462;2024-01-30T02:00:36;7.17;;;6.47;;
75429;SDS011;64127;51.488;5.462;2024-01-30T02:03:11;7.60;;;6.20;;
75429;SDS011;64127;51.488;5.462;2024-01-30T02:05:45;7.17;;;6.47;;
75429;SDS011;64127;51.488;5.462;2024-01-30T02:08:17;7.23;;;6.43;;
75429;SDS011;64127;51.488;5.462;2024-01-30T02:10:50;8.00;;;5.97;;
75429;SDS011;64127;51.488;5.462;2024-01-30T02:13:22;6.90;;;6.20;;
75429;SDS011;64127;51.488;5.462;2024-01-30T02:15:54;9.47;;;6.57;;
75429;SDS011;64127;51.488;5.462;2024-01-30T02:18:26;6.73;;;6.00;;
75429;SDS011;64127;51.488;5.462;2024-01-30T02:20:59;7.37;;;6.30;;
75429;SDS011;64127;51.488;5.462;2024-01-30T02:23:35;7.13;;;6.30;;
75429;SDS011;64127;51.488;5.462;2024-01-30T02:26:10;6.57;;;5.77;;
75429;SDS011;64127;51.488;5.462;2024-01-30T02:28:43;7.17;;;6.47;;
75429;SDS011;64127;51.488;5.462;2024-01-30T02:31:15;7.30;;;6.53;;
75429;SDS011;64127;51.488;5.462;2024-01-30T02:33:47;7.13;;;6.43;;
75429;SDS011;64127;51.488;5.462;2024-01-30T02:36:19;7.20;;;6.50;;
75429;SDS011;64127;51.488;5.462;2024-01-30T02:38:51;8.13;;;6.80;;
75429;SDS011;64127;51.488;5.462;2024-01-30T02:41:23;7.23;;;6.50;;
75429;SDS011;64127;51.488;5.462;2024-01-30T02:43:55;7.27;;;6.57;;
75429;SDS011;64127;51.488;5.462;2024-01-30T02:46:27;6.97;;;6.23;;
75429;SDS011;64127;51.488;5.462;2024-01-30T02:48:59;9.10;;;6.50;;
75429;SDS011;64127;51.488;5.462;2024-01-30T02:51:31;7.13;;;6.13;;
75429;SDS011;64127;51.488;5.462;2024-01-30T02:54:03;6.60;;;5.90;;
75429;SDS011;64127;51.488;5.462;2024-01-30T02:56:35;7.23;;;6.43;;
75429;SDS011;64127;51.488;5.462;2024-01-30T02:59:07;6.50;;;5.90;;
75429;SDS011;64127;51.488;5.462;2024-01-30T03:01:45;7.70;;;6.47;;
75429;SDS011;64127;51.488;5.462;2024-01-30T03:04:19;6.77;;;6.10;;
75429;SDS011;64127;51.488;5.462;2024-01-30T03:06:51;6.53;;;5.93;;
75429;SDS011;64127;51.488;5.462;2024-01-30T03:09:23;6.90;;;6.20;;
75429;SDS011;64127;51.488;5.462;2024-01-30T03:11:55;6.83;;;6.17;;
75429;SDS011;64127;51.488;5.462;2024-01-30T03:14:27;9.17;;;6.77;;
75429;SDS011;64127;51.488;5.462;2024-01-30T03:17:03;6.50;;;5.87;;
75429;SDS011;64127;51.488;5.462;2024-01-30T03:19:35;6.67;;;5.93;;
75429;SDS011;64127;51.488;5.462;2024-01-30T03:22:08;7.07;;;6.23;;
75429;SDS011;64127;51.488;5.462;2024-01-30T03:24:40;6.57;;;5.97;;
75429;SDS011;64127;51.488;5.462;2024-01-30T03:27:12;6.73;;;5.93;;
75429;SDS011;64127;51.488;5.462;2024-01-30T03:29:44;7.27;;;5.93;;
75429;SDS011;64127;51.488;5.462;2024-01-30T03:32:15;8.03;;;6.17;;
75429;SDS011;64127;51.488;5.462;2024-01-30T03:34:47;6.77;;;6.17;;
75429;SDS011;64127;51.488;5.462;2024-01-30T03:37:19;7.47;;;6.40;;
75429;SDS011;64127;51.488;5.462;2024-01-30T03:39:52;6.70;;;6.00;;
75429;SDS011;64127;51.488;5.462;2024-01-30T03:42:24;6.67;;;5.97;;
75429;SDS011;64127;51.488;5.462;2024-01-30T03:44:56;6.67;;;5.97;;
75429;SDS011;64127;51.488;5.462;2024-01-30T03:47:28;6.13;;;5.53;;
75429;SDS011;64127;51.488;5.462;2024-01-30T03:50:00;6.40;;;5.80;;
75429;SDS011;64127;51.488;5.462;2024-01-30T03:52:32;7.40;;;5.87;;
75429;SDS011;64127;51.488;5.462;2024-01-30T03:55:04;6.40;;;5.80;;
75429;SDS011;64127;51.488;5.462;2024-01-30T03:57:36;6.50;;;5.90;;
75429;SDS011;64127;51.488;5.462;2024-01-30T04:00:09;7.00;;;6.30;;
75429;SDS011;64127;51.488;5.462;2024-01-30T04:02:41;8.30;;;6.53;;
75429;SDS011;64127;51.488;5.462;2024-01-30T04:05:14;7.63;;;6.40;;
75429;SDS011;64127;51.488;5.462;2024-01-30T04:07:46;7.20;;;5.97;;
75429;SDS011;64127;51.488;5.462;2024-01-30T04:10:18;7.47;;;5.77;;
75429;SDS011;64127;51.488;5.462;2024-01-30T04:12:51;7.47;;;6.27;;
75429;SDS011;64127;51.488;5.462;2024-01-30T04:15:23;6.23;;;5.63;;
75429;SDS011;64127;51.488;5.462;2024-01-30T04:17:57;6.30;;;5.70;;
75429;SDS011;64127;51.488;5.462;2024-01-30T04:20:30;7.60;;;5.40;;
75429;SDS011;64127;51.488;5.462;2024-01-30T04:23:02;6.63;;;5.40;;
75429;SDS011;64127;51.488;5.462;2024-01-30T04:25:34;6.87;;;5.80;;
75429;SDS011;64127;51.488;5.462;2024-01-30T04:28:06;6.20;;;5.60;;
75429;SDS011;64127;51.488;5.462;2024-01-30T04:30:39;6.30;;;5.30;;
75429;SDS011;64127;51.488;5.462;2024-01-30T04:33:11;5.80;;;5.20;;
75429;SDS011;64127;51.488;5.462;2024-01-30T04:35:43;17.70;;;6.07;;
75429;SDS011;64127;51.488;5.462;2024-01-30T04:38:15;8.13;;;5.60;;
75429;SDS011;64127;51.488;5.462;2024-01-30T04:40:47;6.20;;;5.60;;
75429;SDS011;64127;51.488;5.462;2024-01-30T04:43:19;5.73;;;5.17;;
75429;SDS011;64127;51.488;5.462;2024-01-30T04:45:51;6.23;;;5.33;;
75429;SDS011;64127;51.488;5.462;2024-01-30T04:48:23;6.80;;;5.83;;
75429;SDS011;64127;51.488;5.462;2024-01-30T04:50:55;6.70;;;5.87;;
75429;SDS011;64127;51.488;5.462;2024-01-30T04:53:27;6.47;;;5.63;;
75429;SDS011;64127;51.488;5.462;2024-01-30T04:56:01;7.37;;;5.80;;
75429;SDS011;64127;51.488;5.462;2024-01-30T04:58:34;6.37;;;5.70;;
75429;SDS011;64127;51.488;5.462;2024-01-30T05:01:05;6.37;;;5.67;;
75429;SDS011;64127;51.488;5.462;2024-01-30T05:03:38;5.90;;;5.30;;
75429;SDS011;64127;51.488;5.462;2024-01-30T05:06:10;5.90;;;5.40;;
75429;SDS011;64127;51.488;5.462;2024-01-30T05:08:42;6.23;;;5.63;;
75429;SDS011;64127;51.488;5.462;2024-01-30T05:11:14;5.83;;;5.20;;
75429;SDS011;64127;51.488;5.462;2024-01-30T05:13:46;6.10;;;5.50;;
75429;SDS011;64127;51.488;5.462;2024-01-30T05:16:18;5.80;;;5.20;;
75429;SDS011;64127;51.488;5.462;2024-01-30T05:18:50;5.60;;;5.10;;
75429;SDS011;64127;51.488;5.462;2024-01-30T05:21:23;7.77;;;5.10;;
75429;SDS011;64127;51.488;5.462;2024-01-30T05:23:55;6.17;;;5.20;;
75429;SDS011;64127;51.488;5.462;2024-01-30T05:26:27;5.73;;;5.20;;
75429;SDS011;64127;51.488;5.462;2024-01-30T05:28:59;7.93;;;5.13;;
75429;SDS011;64127;51.488;5.462;2024-01-30T05:31:31;6.17;;;5.10;;
75429;SDS011;64127;51.488;5.462;2024-01-30T05:34:03;5.93;;;4.90;;
75429;SDS011;64127;51.488;5.462;2024-01-30T05:36:35;6.30;;;5.37;;
75429;SDS011;64127;51.488;5.462;2024-01-30T05:39:07;5.23;;;4.73;;
75429;SDS011;64127;51.488;5.462;2024-01-30T05:41:39;5.50;;;5.00;;
75429;SDS011;64127;51.488;5.462;2024-01-30T05:44:11;5.90;;;5.27;;
75429;SDS011;64127;51.488;5.462;2024-01-30T05:46:43;6.10;;;5.20;;
75429;SDS011;64127;51.488;5.462;2024-01-30T05:49:15;6.30;;;5.47;;
75429;SDS011;64127;51.488;5.462;2024-01-30T05:51:47;6.03;;;5.43;;
75429;SDS011;64127;51.488;5.462;2024-01-30T05:54:20;6.27;;;5.67;;
75429;SDS011;64127;51.488;5.462;2024-01-30T05:56:52;5.93;;;5.33;;
75429;SDS011;64127;51.488;5.462;2024-01-30T05:59:24;6.93;;;5.27;;
75429;SDS011;64127;51.488;5.462;2024-01-30T06:01:55;6.20;;;5.50;;
75429;SDS011;64127;51.488;5.462;2024-01-30T06:04:28;6.00;;;5.40;;
75429;SDS011;64127;51.488;5.462;2024-01-30T06:07:00;6.20;;;5.30;;
75429;SDS011;64127;51.488;5.462;2024-01-30T06:09:33;5.23;;;4.73;;
75429;SDS011;64127;51.488;5.462;2024-01-30T06:12:05;6.33;;;5.27;;
75429;SDS011;64127;51.488;5.462;2024-01-30T06:14:37;6.17;;;5.47;;
75429;SDS011;64127;51.488;5.462;2024-01-30T06:17:09;6.23;;;5.30;;
75429;SDS011;64127;51.488;5.462;2024-01-30T06:19:43;7.20;;;4.93;;
75429;SDS011;64127;51.488;5.462;2024-01-30T06:22:15;5.57;;;4.90;;
75429;SDS011;64127;51.488;5.462;2024-01-30T06:24:48;5.67;;;5.07;;
75429;SDS011;64127;51.488;5.462;2024-01-30T06:27:20;5.70;;;4.97;;
75429;SDS011;64127;51.488;5.462;2024-01-30T06:29:52;6.17;;;5.57;;
75429;SDS011;64127;51.488;5.462;2024-01-30T06:32:24;5.50;;;5.00;;
75429;SDS011;64127;51.488;5.462;2024-01-30T06:34:56;5.77;;;5.00;;
75429;SDS011;64127;51.488;5.462;2024-01-30T06:37:28;5.40;;;4.90;;
75429;SDS011;64127;51.488;5.462;2024-01-30T06:40:00;5.77;;;5.10;;
75429;SDS011;64127;51.488;5.462;2024-01-30T06:42:32;6.73;;;5.07;;
75429;SDS011;64127;51.488;5.462;2024-01-30T06:45:04;6.67;;;5.17;;
75429;SDS011;64127;51.488;5.462;2024-01-30T06:47:37;7.33;;;5.20;;
75429;SDS011;64127;51.488;5.462;2024-01-30T06:50:09;5.80;;;5.27;;
75429;SDS011;64127;51.488;5.462;2024-01-30T06:52:41;5.67;;;5.07;;
75429;SDS011;64127;51.488;5.462;2024-01-30T06:55:13;6.50;;;5.57;;
75429;SDS011;64127;51.488;5.462;2024-01-30T06:57:45;7.13;;;5.00;;
75429;SDS011;64127;51.488;5.462;2024-01-30T07:00:19;6.00;;;5.40;;
75429;SDS011;64127;51.488;5.462;2024-01-30T07:02:51;6.13;;;5.50;;
75429;SDS011;64127;51.488;5.462;2024-01-30T07:05:23;5.97;;;5.07;;
75429;SDS011;64127;51.488;5.462;2024-01-30T07:07:55;5.37;;;4.87;;
75429;SDS011;64127;51.488;5.462;2024-01-30T07:10:28;6.83;;;5.43;;
75429;SDS011;64127;51.488;5.462;2024-01-30T07:13:00;7.37;;;5.50;;
75429;SDS011;64127;51.488;5.462;2024-01-30T07:15:32;5.93;;;5.03;;
75429;SDS011;64127;51.488;5.462;2024-01-30T07:18:05;8.33;;;5.57;;
75429;SDS011;64127;51.488;5.462;2024-01-30T07:20:37;6.53;;;5.27;;
75429;SDS011;64127;51.488;5.462;2024-01-30T07:23:13;6.43;;;5.10;;
75429;SDS011;64127;51.488;5.462;2024-01-30T07:25:47;6.67;;;5.20;;
75429;SDS011;64127;51.488;5.462;2024-01-30T07:28:22;7.00;;;5.30;;
75429;SDS011;64127;51.488;5.462;2024-01-30T07:30:55;6.67;;;5.80;;
75429;SDS011;64127;51.488;5.462;2024-01-30T07:33:27;6.07;;;5.10;;
75429;SDS011;64127;51.488;5.462;2024-01-30T07:35:59;7.27;;;5.73;;
75429;SDS011;64127;51.488;5.462;2024-01-30T07:38:31;5.73;;;5.10;;
75429;SDS011;64127;51.488;5.462;2024-01-30T07:41:03;6.13;;;5.50;;
75429;SDS011;64127;51.488;5.462;2024-01-30T07:43:35;6.07;;;5.47;;
75429;SDS011;64127;51.488;5.462;2024-01-30T07:46:09;6.07;;;5.37;;
75429;SDS011;64127;51.488;5.462;2024-01-30T07:48:42;6.67;;;5.47;;
75429;SDS011;64127;51.488;5.462;2024-01-30T07:51:14;11.93;;;5.97;;
75429;SDS011;64127;51.488;5.462;2024-01-30T07:53:52;6.30;;;5.70;;
75429;SDS011;64127;51.488;5.462;2024-01-30T07:56:24;6.20;;;5.60;;
75429;SDS011;64127;51.488;5.462;2024-01-30T07:58:56;6.87;;;6.00;;
75429;SDS011;64127;51.488;5.462;2024-01-30T08:01:28;6.53;;;5.83;;
75429;SDS011;64127;51.488;5.462;2024-01-30T08:04:00;6.53;;;5.77;;
75429;SDS011;64127;51.488;5.462;2024-01-30T08:06:33;6.03;;;5.43;;
75429;SDS011;64127;51.488;5.462;2024-01-30T08:09:05;5.80;;;5.30;;
75429;SDS011;64127;51.488;5.462;2024-01-30T08:11:37;7.77;;;6.27;;
75429;SDS011;64127;51.488;5.462;2024-01-30T08:14:09;9.03;;;6.13;;
75429;SDS011;64127;51.488;5.462;2024-01-30T08:16:41;7.10;;;5.73;;
75429;SDS011;64127;51.488;5.462;2024-01-30T08:19:14;7.30;;;6.43;;
75429;SDS011;64127;51.488;5.462;2024-01-30T08:21:46;7.23;;;6.50;;
75429;SDS011;64127;51.488;5.462;2024-01-30T08:24:18;6.93;;;5.37;;
75429;SDS011;64127;51.488;5.462;2024-01-30T08:26:50;6.30;;;5.70;;
75429;SDS011;64127;51.488;5.462;2024-01-30T08:29:22;6.50;;;5.80;;
75429;SDS011;64127;51.488;5.462;2024-01-30T08:31:55;6.93;;;5.67;;
75429;SDS011;64127;51.488;5.462;2024-01-30T08:34:27;6.43;;;5.70;;
75429;SDS011;64127;51.488;5.462;2024-01-30T08:36:59;6.43;;;5.47;;
75429;SDS011;64127;51.488;5.462;2024-01-30T08:39:31;5.97;;;5.40;;
75429;SDS011;64127;51.488;5.462;2024-01-30T08:42:03;10.77;;;6.00;;
75429;SDS011;64127;51.488;5.462;2024-01-30T08:44:35;6.43;;;5.83;;
75429;SDS011;64127;51.488;5.462;2024-01-30T08:47:07;6.53;;;5.90;;
75429;SDS011;64127;51.488;5.462;2024-01-30T08:49:39;7.50;;;6.10;;
75429;SDS011;64127;51.488;5.462;2024-01-30T08:52:12;6.13;;;5.53;;
75429;SDS011;64127;51.488;5.462;2024-01-30T08:54:44;7.47;;;5.93;;
75429;SDS011;64127;51.488;5.462;2024-01-30T08:57:17;7.13;;;5.90;;
75429;SDS011;64127;51.488;5.462;2024-01-30T08:59:48;7.03;;;5.87;;
75429;SDS011;64127;51.488;5.462;2024-01-30T09:02:20;6.37;;;5.50;;
75429;SDS011;64127;51.488;5.462;2024-01-30T09:04:53;7.20;;;6.37;;
75429;SDS011;64127;51.488;5.462;2024-01-30T09:07:25;8.73;;;6.10;;
75429;SDS011;64127;51.488;5.462;2024-01-30T09:09:57;6.03;;;5.10;;
75429;SDS011;64127;51.488;5.462;2024-01-30T09:12:29;6.50;;;5.80;;
75429;SDS011;64127;51.488;5.462;2024-01-30T09:15:01;7.23;;;5.87;;
75429;SDS011;64127;51.488;5.462;2024-01-30T09:17:33;6.90;;;5.70;;
75429;SDS011;64127;51.488;5.462;2024-01-30T09:20:05;7.77;;;5.80;;
75429;SDS011;64127;51.488;5.462;2024-01-30T09:22:38;10.87;;;5.73;;
75429;SDS011;64127;51.488;5.462;2024-01-30T09:25:10;8.03;;;6.00;;
75429;SDS011;64127;51.488;5.462;2024-01-30T09:27:42;8.00;;;5.93;;
75429;SDS011;64127;51.488;5.462;2024-01-30T09:30:14;6.80;;;5.80;;
75429;SDS011;64127;51.488;5.462;2024-01-30T09:32:47;7.60;;;5.70;;
75429;SDS011;64127;51.488;5.462;2024-01-30T09:35:19;6.20;;;5.57;;
75429;SDS011;64127;51.488;5.462;2024-01-30T09:37:51;6.87;;;5.20;;
75429;SDS011;64127;51.488;5.462;2024-01-30T09:40:23;6.97;;;5.63;;
75429;SDS011;64127;51.488;5.462;2024-01-30T09:42:56;7.80;;;5.77;;
75429;SDS011;64127;51.488;5.462;2024-01-30T09:45:31;9.73;;;5.70;;
75429;SDS011;64127;51.488;5.462;2024-01-30T09:48:06;8.47;;;6.00;;
75429;SDS011;64127;51.488;5.462;2024-01-30T09:50:38;8.03;;;6.13;;
75429;SDS011;64127;51.488;5.462;2024-01-30T09:53:11;7.57;;;6.17;;
75429;SDS011;64127;51.488;5.462;2024-01-30T09:55:45;6.30;;;5.63;;
75429;SDS011;64127;51.488;5.462;2024-01-30T09:58:20;7.27;;;6.17;;
75429;SDS011;64127;51.488;5.462;2024-01-30T10:00:53;9.37;;;6.00;;
75429;SDS011;64127;51.488;5.462;2024-01-30T10:03:29;8.23;;;5.70;;
75429;SDS011;64127;51.488;5.462;2024-01-30T10:06:02;8.33;;;6.30;;
75429;SDS011;64127;51.488;5.462;2024-01-30T10:08:34;9.53;;;6.33;;
75429;SDS011;64127;51.488;5.462;2024-01-30T10:11:06;10.03;;;6.00;;
75429;SDS011;64127;51.488;5.462;2024-01-30T10:13:38;7.43;;;5.97;;
75429;SDS011;64127;51.488;5.462;2024-01-30T10:16:13;9.63;;;5.87;;
75429;SDS011;64127;51.488;5.462;2024-01-30T10:18:48;9.60;;;5.93;;
75429;SDS011;64127;51.488;5.462;2024-01-30T10:21:20;9.57;;;6.20;;
75429;SDS011;64127;51.488;5.462;2024-01-30T10:23:52;7.30;;;5.80;;
75429;SDS011;64127;51.488;5.462;2024-01-30T10:26:24;8.90;;;6.23;;
75429;SDS011;64127;51.488;5.462;2024-01-30T10:28:57;8.73;;;6.23;;
75429;SDS011;64127;51.488;5.462;2024-01-30T10:31:29;8.20;;;6.10;;
75429;SDS011;64127;51.488;5.462;2024-01-30T10:34:01;8.87;;;6.20;;
75429;SDS011;64127;51.488;5.462;2024-01-30T10:36:47;8.57;;;6.10;;
75429;SDS011;64127;51.488;5.462;2024-01-30T10:39:48;9.67;;;6.27;;
75429;SDS011;64127;51.488;5.462;2024-01-30T10:42:26;9.30;;;6.43;;
75429;SDS011;64127;51.488;5.462;2024-01-30T10:45:07;10.37;;;6.50;;
75429;SDS011;64127;51.488;5.462;2024-01-30T10:47:49;8.83;;;6.90;;
75429;SDS011;64127;51.488;5.462;2024-01-30T10:50:27;9.30;;;6.70;;
75429;SDS011;64127;51.488;5.462;2024-01-30T10:53:02;12.90;;;7.30;;
75429;SDS011;64127;51.488;5.462;2024-01-30T10:55:36;13.70;;;7.03;;
75429;SDS011;64127;51.488;5.462;2024-01-30T10:58:10;9.87;;;6.87;;
75429;SDS011;64127;51.488;5.462;2024-01-30T11:00:43;9.20;;;6.97;;
75429;SDS011;64127;51.488;5.462;2024-01-30T11:03:16;10.03;;;6.63;;
75429;SDS011;64127;51.488;5.462;2024-01-30T11:05:50;9.80;;;7.47;;
75429;SDS011;64127;51.488;5.462;2024-01-30T11:08:23;9.70;;;7.00;;
75429;SDS011;64127;51.488;5.462;2024-01-30T11:11:00;10.23;;;7.17;;
75429;SDS011;64127;51.488;5.462;2024-01-30T11:13:32;10.50;;;7.20;;
75429;SDS011;64127;51.488;5.462;2024-01-30T11:16:04;11.33;;;7.10;;
75429;SDS011;64127;51.488;5.462;2024-01-30T11:18:37;9.57;;;7.60;;
75429;SDS011;64127;51.488;5.462;2024-01-30T11:21:09;9.97;;;7.03;;
75429;SDS011;64127;51.488;5.462;2024-01-30T11:23:45;10.10;;;7.97;;
75429;SDS011;64127;51.488;5.462;2024-01-30T11:26:17;9.27;;;7.43;;
75429;SDS011;64127;51.488;5.462;2024-01-30T11:28:58;10.53;;;7.20;;
75429;SDS011;64127;51.488;5.462;2024-01-30T11:31:35;8.80;;;7.30;;
75429;SDS011;64127;51.488;5.462;2024-01-30T11:34:08;11.20;;;7.47;;
75429;SDS011;64127;51.488;5.462;2024-01-30T11:36:42;10.63;;;7.40;;
75429;SDS011;64127;51.488;5.462;2024-01-30T11:39:19;8.43;;;7.27;;
75429;SDS011;64127;51.488;5.462;2024-01-30T11:41:54;10.50;;;7.93;;
75429;SDS011;64127;51.488;5.462;2024-01-30T11:44:27;12.20;;;7.63;;
75429;SDS011;64127;51.488;5.462;2024-01-30T11:46:59;11.90;;;7.87;;
75429;SDS011;64127;51.488;5.462;2024-01-30T11:49:31;9.33;;;7.23;;
75429;SDS011;64127;51.488;5.462;2024-01-30T11:52:04;10.63;;;7.30;;
75429;SDS011;64127;51.488;5.462;2024-01-30T11:54:39;9.13;;;6.90;;
75429;SDS011;64127;51.488;5.462;2024-01-30T11:57:11;8.40;;;6.33;;
75429;SDS011;64127;51.488;5.462;2024-01-30T11:59:43;10.67;;;6.47;;
75429;SDS011;64127;51.488;5.462;2024-01-30T12:02:16;9.50;;;6.47;;
75429;SDS011;64127;51.488;5.462;2024-01-30T12:04:50;8.93;;;6.67;;
75429;SDS011;64127;51.488;5.462;2024-01-30T12:07:23;9.73;;;6.10;;
75429;SDS011;64127;51.488;5.462;2024-01-30T12:09:55;8.57;;;5.97;;
75429;SDS011;64127;51.488;5.462;2024-01-30T12:12:27;7.73;;;5.80;;
75429;SDS011;64127;51.488;5.462;2024-01-30T12:15:01;6.83;;;5.13;;
75429;SDS011;64127;51.488;5.462;2024-01-30T12:17:33;6.23;;;5.10;;
75429;SDS011;64127;51.488;5.462;2024-01-30T12:22:42;7.97;;;4.43;;
75429;SDS011;64127;51.488;5.462;2024-01-30T12:25:17;7.30;;;4.40;;
75429;SDS011;64127;51.488;5.462;2024-01-30T12:27:52;5.77;;;3.90;;
75429;SDS011;64127;51.488;5.462;2024-01-30T12:30:25;5.67;;;3.37;;
75429;SDS011;64127;51.488;5.462;2024-01-30T12:32:59;5.37;;;3.50;;
75429;SDS011;64127;51.488;5.462;2024-01-30T12:35:33;4.33;;;2.90;;
75429;SDS011;64127;51.488;5.462;2024-01-30T12:38:07;4.23;;;2.50;;
75429;SDS011;64127;51.488;5.462;2024-01-30T12:40:39;4.40;;;2.17;;
75429;SDS011;64127;51.488;5.462;2024-01-30T12:43:15;2.77;;;1.97;;
75429;SDS011;64127;51.488;5.462;2024-01-30T12:46:02;2.77;;;1.70;;
75429;SDS011;64127;51.488;5.462;2024-01-30T12:48:35;4.20;;;2.00;;
75429;SDS011;64127;51.488;5.462;2024-01-30T12:51:07;3.20;;;1.80;;
75429;SDS011;64127;51.488;5.462;2024-01-30T12:53:40;2.20;;;1.53;;
75429;SDS011;64127;51.488;5.462;2024-01-30T12:56:12;2.73;;;1.60;;
75429;SDS011;64127;51.488;5.462;2024-01-30T12:58:45;3.30;;;1.50;;
75429;SDS011;64127;51.488;5.462;2024-01-30T13:01:22;2.53;;;1.40;;
75429;SDS011;64127;51.488;5.462;2024-01-30T13:03:54;2.40;;;1.53;;
75429;SDS011;64127;51.488;5.462;2024-01-30T13:06:28;2.53;;;1.33;;
75429;SDS011;64127;51.488;5.462;2024-01-30T13:09:01;2.47;;;1.43;;
75429;SDS011;64127;51.488;5.462;2024-01-30T13:11:33;3.40;;;1.40;;
75429;SDS011;64127;51.488;5.462;2024-01-30T13:14:05;2.37;;;1.30;;
75429;SDS011;64127;51.488;5.462;2024-01-30T13:16:37;1.37;;;1.27;;
75429;SDS011;64127;51.488;5.462;2024-01-30T13:19:09;2.93;;;1.50;;
75429;SDS011;64127;51.488;5.462;2024-01-30T13:21:42;2.23;;;1.50;;
75429;SDS011;64127;51.488;5.462;2024-01-30T13:24:14;1.90;;;1.43;;
75429;SDS011;64127;51.488;5.462;2024-01-30T13:26:46;2.70;;;1.70;;
75429;SDS011;64127;51.488;5.462;2024-01-30T13:29:19;3.23;;;1.57;;
75429;SDS011;64127;51.488;5.462;2024-01-30T13:31:51;2.13;;;1.40;;
75429;SDS011;64127;51.488;5.462;2024-01-30T13:34:24;2.47;;;1.40;;
75429;SDS011;64127;51.488;5.462;2024-01-30T13:36:56;4.37;;;1.63;;
75429;SDS011;64127;51.488;5.462;2024-01-30T13:39:28;3.53;;;1.60;;
75429;SDS011;64127;51.488;5.462;2024-01-30T13:42:06;2.20;;;1.30;;
75429;SDS011;64127;51.488;5.462;2024-01-30T13:44:39;4.23;;;1.67;;
75429;SDS011;64127;51.488;5.462;2024-01-30T13:47:11;1.53;;;1.20;;
75429;SDS011;64127;51.488;5.462;2024-01-30T13:49:43;2.53;;;1.20;;
75429;SDS011;64127;51.488;5.462;2024-01-30T13:52:15;2.93;;;1.40;;
75429;SDS011;64127;51.488;5.462;2024-01-30T13:54:47;2.43;;;1.53;;
75429;SDS011;64127;51.488;5.462;2024-01-30T13:57:19;4.20;;;1.33;;
75429;SDS011;64127;51.488;5.462;2024-01-30T13:59:51;2.20;;;1.30;;
75429;SDS011;64127;51.488;5.462;2024-01-30T14:02:23;2.50;;;1.30;;
75429;SDS011;64127;51.488;5.462;2024-01-30T14:04:55;2.73;;;1.40;;
75429;SDS011;64127;51.488;5.462;2024-01-30T14:07:27;3.70;;;1.57;;
75429;SDS011;64127;51.488;5.462;2024-01-30T14:10:00;5.10;;;1.40;;
75429;SDS011;64127;51.488;5.462;2024-01-30T14:12:33;2.50;;;1.43;;
75429;SDS011;64127;51.488;5.462;2024-01-30T14:15:06;3.33;;;1.60;;
75429;SDS011;64127;51.488;5.462;2024-01-30T14:17:57;2.77;;;1.40;;
75429;SDS011;64127;51.488;5.462;2024-01-30T14:20:30;3.30;;;1.60;;
75429;SDS011;64127;51.488;5.462;2024-01-30T14:23:02;4.00;;;1.73;;
75429;SDS011;64127;51.488;5.462;2024-01-30T14:25:35;3.67;;;1.57;;
75429;SDS011;64127;51.488;5.462;2024-01-30T14:28:07;1.83;;;1.13;;
75429;SDS011;64127;51.488;5.462;2024-01-30T14:30:39;4.03;;;1.80;;
75429;SDS011;64127;51.488;5.462;2024-01-30T14:33:11;2.70;;;1.87;;
75429;SDS011;64127;51.488;5.462;2024-01-30T14:35:43;3.00;;;1.73;;
75429;SDS011;64127;51.488;5.462;2024-01-30T14:38:15;3.03;;;1.87;;
75429;SDS011;64127;51.488;5.462;2024-01-30T14:40:47;3.03;;;2.13;;
75429;SDS011;64127;51.488;5.462;2024-01-30T14:43:19;3.20;;;2.10;;
75429;SDS011;64127;51.488;5.462;2024-01-30T14:45:51;2.67;;;2.10;;
75429;SDS011;64127;51.488;5.462;2024-01-30T14:48:23;4.27;;;2.20;;
75429;SDS011;64127;51.488;5.462;2024-01-30T14:50:56;3.13;;;2.40;;
75429;SDS011;64127;51.488;5.462;2024-01-30T14:53:28;4.27;;;2.47;;
75429;SDS011;64127;51.488;5.462;2024-01-30T14:56:00;4.83;;;2.93;;
75429;SDS011;64127;51.488;5.462;2024-01-30T14:58:34;5.97;;;2.93;;
75429;SDS011;64127;51.488;5.462;2024-01-30T15:01:06;5.03;;;3.27;;
75429;SDS011;64127;51.488;5.462;2024-01-30T15:03:38;5.20;;;3.40;;
75429;SDS011;64127;51.488;5.462;2024-01-30T15:06:14;4.43;;;3.23;;
75429;SDS011;64127;51.488;5.462;2024-01-30T15:08:46;4.70;;;3.20;;
75429;SDS011;64127;51.488;5.462;2024-01-30T15:11:18;6.97;;;3.00;;
75429;SDS011;64127;51.488;5.462;2024-01-30T15:13:50;5.90;;;3.67;;
75429;SDS011;64127;51.488;5.462;2024-01-30T15:16:22;7.53;;;3.33;;
75429;SDS011;64127;51.488;5.462;2024-01-30T15:18:55;6.57;;;3.40;;
75429;SDS011;64127;51.488;5.462;2024-01-30T15:21:27;6.13;;;3.70;;
75429;SDS011;64127;51.488;5.462;2024-01-30T15:24:01;5.47;;;3.57;;